Time;durP1;ratioP1;P1;durP2;ratioP2;P2;SDS_P1;SDS_P2;PMS_P1;PMS_P2;Temp;Humidity;BMP_temperature;BMP_pressure;BME280_temperature;BME280_humidity;BME280_pressure;Samples;Min_cycle;Max_cycle;Signal;HPM_P1;HPM_P2
2022/08/20 00:01:08;;;;;;;2.80;2.60;;;;;;;18.08;100.00;95297.66;4341762;32;20182;-56
2022/08/20 00:03:45;;;;;;;2.30;2.20;;;;;;;18.13;100.00;95302.78;4357279;32;20230;-58
2022/08/20 00:06:18;;;;;;;2.80;2.63;;;;;;;18.27;100.00;95307.78;4353195;32;20269;-58
2022/08/20 00:08:46;;;;;;;5.50;3.80;;;;;;;18.37;100.00;95310.75;4345041;32;20212;-59
2022/08/20 00:11:26;;;;;;;2.77;2.67;;;;;;;18.52;100.00;95312.69;4322329;32;20233;-60
2022/08/20 00:13:57;;;;;;;2.90;2.70;;;;;;;18.48;100.00;95311.81;4327393;32;20242;-60
2022/08/20 00:16:31;;;;;;;2.77;2.67;;;;;;;18.53;100.00;95314.25;4302373;32;20267;-58
2022/08/20 00:19:22;;;;;;;14.47;3.60;;;;;;;18.58;100.00;95315.13;4338194;32;20307;-57
2022/08/20 00:21:48;;;;;;;3.63;3.33;;;;;;;18.48;100.00;95319.09;4335270;32;20212;-58
2022/08/20 00:24:18;;;;;;;2.97;2.87;;;;;;;18.60;99.81;95312.91;4303674;32;20181;-59
2022/08/20 00:26:44;;;;;;;2.13;2.07;;;;;;;18.51;99.71;95316.47;4353610;32;20208;-58
2022/08/20 00:29:12;;;;;;;3.23;3.03;;;;;;;18.44;99.69;95302.88;4326595;32;20259;-59
2022/08/20 00:31:39;;;;;;;3.07;2.87;;;;;;;18.41;100.00;95303.56;4350516;32;20249;-57
2022/08/20 00:34:05;;;;;;;2.63;2.53;;;;;;;18.39;100.00;95307.72;4355395;32;20203;-58
2022/08/20 00:36:32;;;;;;;2.73;2.60;;;;;;;18.48;100.00;95311.81;4327717;32;20185;-58
2022/08/20 00:39:01;;;;;;;3.83;3.63;;;;;;;18.51;100.00;95304.97;4330916;32;20203;-59
2022/08/20 00:41:29;;;;;;;5.97;3.37;;;;;;;18.53;99.98;95319.63;4359202;32;20181;-58
2022/08/20 00:44:12;;;;;;;4.13;3.83;;;;;;;18.61;99.34;95312.56;4314651;32;20236;-59
2022/08/20 00:46:40;;;;;;;3.00;2.80;;;;;;;18.63;99.63;95312.22;4296597;32;20174;-57
2022/08/20 00:49:08;;;;;;;3.43;3.13;;;;;;;18.61;99.12;95312.56;4333760;32;20196;-59
2022/08/20 00:51:46;;;;;;;2.87;2.77;;;;;;;18.75;98.86;95326.34;4362627;32;20196;-59
2022/08/20 00:54:38;;;;;;;8.40;3.40;;;;;;;18.71;99.09;95324.69;4346396;32;20224;-59
2022/08/20 00:57:23;;;;;;;2.57;2.37;;;;;;;18.79;98.48;95321.06;4304270;33;20208;-57
2022/08/20 00:59:52;;;;;;;3.60;3.43;;;;;;;18.84;98.34;95331.59;4345049;32;20212;-58
2022/08/20 01:02:24;;;;;;;3.97;3.67;;;;;;;18.89;97.86;95317.91;4314637;33;20202;-59
2022/08/20 01:04:53;;;;;;;3.53;3.33;;;;;;;18.79;97.95;95326.47;4347676;32;20192;-59
2022/08/20 01:07:31;;;;;;;3.77;3.47;;;;;;;18.77;98.04;95326.00;4321933;32;20193;-58
2022/08/20 01:10:08;;;;;;;3.73;3.43;;;;;;;18.73;98.11;95325.12;4329311;32;20275;-57
2022/08/20 01:12:33;;;;;;;4.43;4.13;;;;;;;18.61;98.73;95328.69;4309402;32;20210;-58
2022/08/20 01:15:01;;;;;;;2.83;2.73;;;;;;;18.63;99.00;95322.97;4312721;32;20260;-57
2022/08/20 01:17:31;;;;;;;3.53;3.23;;;;;;;18.69;98.61;95329.66;4318460;32;20202;-58
2022/08/20 01:20:12;;;;;;;3.30;3.10;;;;;;;18.72;98.79;95326.25;4338510;32;20173;-59
2022/08/20 01:26:14;;;;;;;3.33;3.13;;;;;;;18.66;99.23;95335.72;4328144;32;20279;-58
2022/08/20 01:29:04;;;;;;;3.90;3.70;;;;;;;18.50;99.50;95336.41;4335961;32;20271;-59
2022/08/20 01:31:44;;;;;;;4.47;4.17;;;;;;;18.58;99.74;95334.72;4334642;32;20276;-59
2022/08/20 01:34:15;;;;;;;3.40;3.30;;;;;;;18.66;99.55;95324.97;4347279;32;20204;-58
2022/08/20 01:36:48;;;;;;;6.17;3.97;;;;;;;18.69;99.56;95335.03;4349772;32;20188;-58
2022/08/20 01:39:23;;;;;;;4.30;3.97;;;;;;;18.65;99.72;95329.56;4300161;32;20197;-58
2022/08/20 01:42:26;;;;;;;3.80;3.60;;;;;;;18.64;99.84;95330.69;4310425;32;20253;-58
2022/08/20 01:44:57;;;;;;;4.73;4.03;;;;;;;18.73;99.77;95333.97;4350113;32;20288;-59
2022/08/20 01:47:31;;;;;;;5.53;4.57;;;;;;;18.78;99.56;95332.97;4342365;32;20264;-59
2022/08/20 01:50:12;;;;;;;4.00;3.80;;;;;;;18.74;99.41;95334.75;4336766;32;20271;-59
2022/08/20 01:53:08;;;;;;;4.30;4.00;;;;;;;18.72;100.00;95328.94;4323133;32;20188;-59
2022/08/20 01:55:37;;;;;;;2.47;2.37;;;;;;;18.69;99.72;95335.03;4351247;32;20240;-60
2022/08/20 01:58:03;;;;;;;3.53;3.33;;;;;;;18.73;99.96;95335.87;4342889;32;20189;-59
2022/08/20 02:00:34;;;;;;;3.53;3.33;;;;;;;18.69;100.00;95332.34;4352369;32;20260;-59
2022/08/20 02:03:02;;;;;;;4.47;3.40;;;;;;;18.78;100.00;95335.66;4336644;32;20189;-59
2022/08/20 02:05:29;;;;;;;4.67;4.33;;;;;;;18.82;100.00;95329.25;4361227;32;20202;-59
2022/08/20 02:07:56;;;;;;;3.57;3.37;;;;;;;18.77;99.92;95331.38;4316396;32;20200;-58
2022/08/20 02:10:22;;;;;;;4.80;3.90;;;;;;;18.77;100.00;95345.63;4360656;32;20207;-60
2022/08/20 02:12:49;;;;;;;3.43;3.23;;;;;;;18.77;100.00;95339.47;4351287;32;20207;-58
2022/08/20 02:15:14;;;;;;;5.87;5.47;;;;;;;18.81;99.89;95343.81;4348479;32;20264;-59
2022/08/20 02:17:44;;;;;;;4.13;3.83;;;;;;;18.72;100.00;95348.53;4359778;32;20202;-58
2022/08/20 02:20:16;;;;;;;3.07;2.90;;;;;;;18.65;100.00;95347.59;4336276;32;20180;-58
2022/08/20 02:22:50;;;;;;;6.20;4.00;;;;;;;18.78;100.00;95349.09;4336725;32;20196;-57
2022/08/20 02:25:32;;;;;;;3.37;3.13;;;;;;;18.57;100.00;95351.19;4341447;32;20197;-59
2022/08/20 02:28:05;;;;;;;4.43;4.17;;;;;;;18.51;100.00;95347.94;4347276;32;20201;-58
2022/08/20 02:30:39;;;;;;;3.77;3.60;;;;;;;18.62;100.00;95353.66;4351085;32;20203;-58
2022/08/20 02:33:12;;;;;;;3.87;3.67;;;;;;;18.60;100.00;95354.00;4352374;32;20220;-58
2022/08/20 02:35:40;;;;;;;5.20;3.43;;;;;;;18.57;100.00;95351.19;4332380;32;20201;-57
2022/08/20 02:38:09;;;;;;;4.07;3.77;;;;;;;18.46;100.00;95359.75;4314202;32;20190;-59
2022/08/20 02:40:38;;;;;;;5.07;4.77;;;;;;;18.49;100.00;95356.38;4310578;32;20287;-63
2022/08/20 02:43:04;;;;;;;3.13;2.97;;;;;;;18.55;100.00;95355.00;4344319;32;20166;-58
2022/08/20 02:45:39;;;;;;;3.00;2.90;;;;;;;18.55;100.00;95352.31;4346400;32;20340;-59
2022/08/20 02:48:05;;;;;;;4.83;4.53;;;;;;;18.55;100.00;95349.63;4303337;32;20193;-57
2022/08/20 02:50:32;;;;;;;4.60;4.20;;;;;;;18.35;100.00;95344.44;4307685;32;20192;-58
2022/08/20 02:52:58;;;;;;;4.23;4.03;;;;;;;18.47;100.00;95353.25;4342185;32;20260;-57
2022/08/20 02:55:25;;;;;;;3.87;3.67;;;;;;;18.55;100.00;95357.66;4344193;32;20197;-59
2022/08/20 02:57:54;;;;;;;3.77;3.57;;;;;;;18.67;100.00;95356.09;4333809;32;20212;-59
2022/08/20 03:00:22;;;;;;;3.90;3.70;;;;;;;18.61;100.00;95352.09;4347724;32;20181;-58
2022/08/20 03:02:50;;;;;;;4.47;4.17;;;;;;;18.63;100.00;95356.00;4368156;32;20201;-59
2022/08/20 03:05:20;;;;;;;4.73;4.43;;;;;;;18.65;100.00;95359.13;4344140;32;20235;-57
2022/08/20 03:07:56;;;;;;;4.67;4.37;;;;;;;18.77;100.00;95352.91;4315064;32;20182;-59
2022/08/20 03:10:28;;;;;;;4.37;4.13;;;;;;;18.68;100.00;95358.44;4336680;32;20195;-59
2022/08/20 03:12:55;;;;;;;3.67;3.50;;;;;;;18.70;100.00;95355.41;4338204;32;20214;-58
2022/08/20 03:15:21;;;;;;;3.67;3.47;;;;;;;18.68;100.00;95358.44;4321259;32;20196;-59
2022/08/20 03:17:48;;;;;;;4.23;3.93;;;;;;;18.74;100.00;95358.97;4331610;32;20247;-57
2022/08/20 03:20:16;;;;;;;4.50;4.20;;;;;;;18.54;100.00;95364.16;4351334;32;20193;-59
2022/08/20 03:22:42;;;;;;;4.77;4.43;;;;;;;18.60;100.00;95372.81;4352493;32;20192;-58
2022/08/20 03:25:09;;;;;;;4.90;4.53;;;;;;;18.40;100.00;95363.00;4314966;32;20177;-59
2022/08/20 03:27:35;;;;;;;3.73;3.53;;;;;;;18.52;100.00;95369.09;4342559;32;20199;-59
2022/08/20 03:30:08;;;;;;;4.13;3.87;;;;;;;18.65;100.00;95363.72;4347368;32;20181;-59
2022/08/20 03:32:36;;;;;;;4.10;3.90;;;;;;;18.73;100.00;95368.94;4342077;32;20192;-59
2022/08/20 03:35:04;;;;;;;4.30;3.90;;;;;;;18.80;100.00;95357.59;4360637;32;20252;-59
2022/08/20 03:37:34;;;;;;;6.07;3.83;;;;;;;18.86;100.00;95366.97;4363043;32;20212;-59
2022/08/20 03:40:04;;;;;;;7.30;5.13;;;;;;;18.70;100.00;95366.16;4305098;32;20192;-60
2022/08/20 03:42:32;;;;;;;4.57;4.37;;;;;;;18.65;100.00;95375.25;4326397;32;20248;-58
2022/08/20 03:44:59;;;;;;;4.30;3.87;;;;;;;18.53;100.00;95375.25;4314736;32;20348;-58
2022/08/20 03:47:26;;;;;;;3.80;3.60;;;;;;;18.49;100.00;95383.25;4320496;32;20189;-58
2022/08/20 03:49:58;;;;;;;4.87;4.57;;;;;;;18.50;100.00;95386.69;4330447;32;20221;-57
2022/08/20 03:52:27;;;;;;;4.43;4.20;;;;;;;18.52;100.00;95387.91;4360221;32;20212;-58
2022/08/20 03:54:54;;;;;;;3.60;3.40;;;;;;;18.61;100.00;95377.06;4342937;32;20188;-58
2022/08/20 03:57:27;;;;;;;3.17;2.97;;;;;;;18.66;100.00;95386.78;4339371;32;20185;-59
2022/08/20 03:59:56;;;;;;;3.50;3.30;;;;;;;18.70;100.00;95387.66;4361175;32;20227;-60
2022/08/20 04:02:24;;;;;;;3.80;3.50;;;;;;;18.64;100.00;95389.81;4352435;32;20240;-58
2022/08/20 04:04:51;;;;;;;4.73;4.23;;;;;;;18.71;100.00;95386.50;4347519;32;20264;-58
2022/08/20 04:07:24;;;;;;;4.33;4.00;;;;;;;18.80;100.00;95379.09;4342460;32;20185;-59
2022/08/20 04:09:55;;;;;;;5.83;5.33;;;;;;;18.78;100.00;95387.50;4313958;32;20184;-57
2022/08/20 04:12:23;;;;;;;5.10;4.90;;;;;;;18.75;100.00;95379.34;4310523;32;20257;-58
2022/08/20 04:14:50;;;;;;;3.83;3.53;;;;;;;18.61;100.00;95389.72;4343713;32;20196;-57
2022/08/20 04:17:28;;;;;;;6.37;5.70;;;;;;;18.73;100.00;95389.66;4318485;32;20216;-57
2022/08/20 04:19:53;;;;;;;4.77;4.47;;;;;;;18.53;100.00;95391.38;4339736;32;20188;-59
2022/08/20 04:22:19;;;;;;;8.47;3.73;;;;;;;18.67;100.00;95393.72;4353613;32;20192;-58
2022/08/20 04:24:46;;;;;;;5.13;4.77;;;;;;;18.70;100.00;95393.03;4348284;32;20189;-59
2022/08/20 04:27:13;;;;;;;3.37;3.20;;;;;;;18.75;100.00;95398.94;4344058;32;20181;-57
2022/08/20 04:29:46;;;;;;;4.63;4.43;;;;;;;18.74;100.00;95397.37;4338941;32;20185;-58
2022/08/20 04:32:14;;;;;;;3.10;2.90;;;;;;;18.83;100.00;95392.63;4345853;32;20181;-57
2022/08/20 04:34:43;;;;;;;4.50;4.17;;;;;;;18.75;100.00;95406.22;4343498;32;20189;-60
2022/08/20 04:37:12;;;;;;;4.00;3.37;;;;;;;18.82;100.00;95411.78;4341226;32;20185;-58
2022/08/20 04:39:41;;;;;;;4.63;4.23;;;;;;;18.86;100.00;95415.38;4352411;32;20259;-59
2022/08/20 04:42:07;;;;;;;3.40;3.20;;;;;;;18.86;100.00;95418.06;4334493;32;20246;-60
2022/08/20 04:44:34;;;;;;;6.43;3.83;;;;;;;18.85;100.00;95419.97;4332427;32;20185;-58
2022/08/20 04:47:01;;;;;;;4.40;4.10;;;;;;;18.89;100.00;95422.75;4369629;32;20180;-59
2022/08/20 04:49:30;;;;;;;4.03;3.80;;;;;;;18.79;100.00;95407.09;4331293;32;20182;-58
2022/08/20 04:51:58;;;;;;;7.87;5.23;;;;;;;18.73;100.00;95413.84;4318508;32;20227;-60
2022/08/20 04:54:25;;;;;;;4.03;3.80;;;;;;;18.81;100.00;95410.22;4349772;32;20219;-59
2022/08/20 04:56:52;;;;;;;3.23;3.03;;;;;;;18.75;100.00;95411.59;4342003;32;20196;-59
2022/08/20 04:59:19;;;;;;;3.77;3.60;;;;;;;18.88;100.00;95415.81;4313636;32;20208;-58
2022/08/20 05:01:46;;;;;;;3.83;3.63;;;;;;;18.91;100.00;95419.72;4319389;32;20269;-59
2022/08/20 05:04:12;;;;;;;4.40;4.10;;;;;;;18.94;100.00;95414.41;4340442;32;20219;-58
2022/08/20 05:06:40;;;;;;;4.73;4.40;;;;;;;18.84;99.93;95414.91;4347405;32;20186;-62
2022/08/20 05:09:07;;;;;;;4.80;4.37;;;;;;;18.79;100.00;95412.47;4335413;32;20200;-58
2022/08/20 05:11:34;;;;;;;3.57;3.37;;;;;;;18.75;100.00;95411.59;4338581;32;20185;-60
2022/08/20 05:14:05;;;;;;;5.07;4.77;;;;;;;18.67;100.00;95418.69;4331675;32;20257;-57
2022/08/20 05:16:44;;;;;;;3.53;3.30;;;;;;;18.63;100.00;95417.03;4290943;32;20201;-59
2022/08/20 05:19:13;;;;;;;3.73;3.53;;;;;;;18.71;100.00;95416.88;4303612;32;20186;-58
2022/08/20 05:21:40;;;;;;;4.03;3.67;;;;;;;18.67;100.00;95421.38;4342079;32;20189;-59
2022/08/20 05:24:10;;;;;;;3.90;3.70;;;;;;;18.75;100.00;95435.78;4325876;32;20198;-60
2022/08/20 05:26:38;;;;;;;3.03;2.93;;;;;;;18.67;100.00;95431.34;4318346;32;20243;-58
2022/08/20 05:29:25;;;;;;;4.57;4.37;;;;;;;18.72;100.00;95433.78;4313832;32;20186;-59
2022/08/20 05:31:50;;;;;;;3.87;3.70;;;;;;;18.76;100.00;95438.13;4318406;32;20181;-57
2022/08/20 05:34:27;;;;;;;5.63;4.70;;;;;;;18.74;100.00;95443.06;4325338;32;20240;-57
2022/08/20 05:36:55;;;;;;;3.23;3.13;;;;;;;18.77;100.00;95446.97;4332204;32;20311;-59
2022/08/20 05:39:21;;;;;;;3.60;3.37;;;;;;;18.72;100.00;95445.31;4334542;32;20204;-58
2022/08/20 05:41:50;;;;;;;3.57;3.37;;;;;;;18.76;100.00;95448.09;4326559;32;20197;-58
2022/08/20 05:44:17;;;;;;;4.00;3.80;;;;;;;18.88;100.00;95448.06;4312861;32;20182;-56
2022/08/20 05:46:46;;;;;;;4.10;3.80;;;;;;;18.90;100.00;95451.19;4302254;32;20188;-59
2022/08/20 05:49:18;;;;;;;3.70;3.40;;;;;;;18.82;100.00;95450.22;4306179;32;20177;-59
2022/08/20 05:51:45;;;;;;;7.60;3.47;;;;;;;18.75;100.00;95444.63;4301368;32;20193;-60
2022/08/20 05:54:13;;;;;;;4.47;4.17;;;;;;;18.79;100.00;95455.50;4302187;32;20190;-58
2022/08/20 05:56:40;;;;;;;3.57;3.40;;;;;;;18.94;100.00;95459.34;4324963;32;20190;-59
2022/08/20 05:59:09;;;;;;;2.90;2.80;;;;;;;18.87;100.00;95457.25;4327159;32;20186;-58
2022/08/20 06:01:36;;;;;;;7.10;4.43;;;;;;;18.90;100.00;95458.47;4309610;32;20200;-59
2022/08/20 06:06:50;;;;;;;2.57;2.47;;;;;;;18.84;100.00;95458.72;4338443;32;20196;-59
2022/08/20 06:09:21;;;;;;;3.97;3.70;;;;;;;18.99;100.00;95459.88;4327584;32;20177;-59
2022/08/20 06:11:49;;;;;;;3.37;3.17;;;;;;;18.92;100.00;95465.06;4327579;32;20207;-59
2022/08/20 06:14:15;;;;;;;4.17;3.90;;;;;;;18.82;100.00;95462.88;4334914;32;20201;-59
2022/08/20 06:16:43;;;;;;;2.73;2.63;;;;;;;18.83;100.00;95467.91;4326818;32;20186;-59
2022/08/20 06:19:12;;;;;;;4.10;3.80;;;;;;;18.82;100.00;95468.25;4337407;32;20189;-63
2022/08/20 06:21:39;;;;;;;4.20;4.00;;;;;;;18.91;100.00;95468.91;4324715;32;20189;-59
2022/08/20 06:24:06;;;;;;;2.97;2.77;;;;;;;18.88;100.00;95469.56;4305917;32;20182;-59
2022/08/20 06:26:33;;;;;;;2.70;2.60;;;;;;;18.79;100.00;95474.31;4301155;32;20181;-58
2022/08/20 06:29:02;;;;;;;3.50;3.33;;;;;;;18.77;100.00;95479.22;4315480;32;20299;-58
2022/08/20 06:31:38;;;;;;;5.73;4.03;;;;;;;19.00;100.00;95472.19;4316052;32;20197;-59
2022/08/20 06:34:06;;;;;;;3.77;3.57;;;;;;;19.02;100.00;95482.63;4297415;32;20181;-57
2022/08/20 06:36:33;;;;;;;3.60;3.40;;;;;;;18.94;99.97;95475.47;4311629;32;20215;-57
2022/08/20 06:39:00;;;;;;;2.90;2.80;;;;;;;19.03;99.97;95476.91;4305399;32;20267;-57
2022/08/20 06:41:27;;;;;;;3.57;3.37;;;;;;;19.05;99.66;95476.56;4331022;32;20268;-57
2022/08/20 06:43:55;;;;;;;4.53;4.23;;;;;;;18.96;99.80;95484.75;4327600;32;20287;-56
2022/08/20 06:46:22;;;;;;;3.00;2.80;;;;;;;19.02;99.68;95475.34;4307752;32;20206;-57
2022/08/20 06:48:50;;;;;;;4.80;4.50;;;;;;;19.16;99.50;95483.00;4322681;32;20190;-58
2022/08/20 06:51:19;;;;;;;4.53;4.23;;;;;;;19.15;98.91;95482.22;4344726;32;20200;-58
2022/08/20 06:53:48;;;;;;;3.07;2.87;;;;;;;19.13;99.05;95484.47;4337745;32;20208;-56
2022/08/20 06:56:13;;;;;;;3.27;3.17;;;;;;;19.10;98.91;95485.16;4338806;32;20241;-58
2022/08/20 06:58:39;;;;;;;3.40;3.20;;;;;;;19.13;99.25;95489.06;4343501;32;20222;-61
2022/08/20 07:01:20;;;;;;;3.13;3.03;;;;;;;19.05;99.75;95487.31;4336282;32;20185;-57
2022/08/20 07:03:52;;;;;;;3.67;3.47;;;;;;;19.13;99.55;95489.06;4357059;32;20189;-56
2022/08/20 07:06:19;;;;;;;3.93;3.63;;;;;;;19.11;99.30;95492.12;4329024;32;20185;-60
2022/08/20 07:08:46;;;;;;;3.60;3.40;;;;;;;19.27;99.00;95491.38;4341655;32;20244;-60
2022/08/20 07:11:16;;;;;;;3.73;3.53;;;;;;;19.28;99.05;95499.09;4341613;32;20193;-62
2022/08/20 07:13:44;;;;;;;3.27;3.07;;;;;;;19.26;98.92;95503.25;4361323;32;20229;-59
2022/08/20 07:16:14;;;;;;;3.93;3.63;;;;;;;19.20;98.28;95502.72;4350000;32;20264;-61
2022/08/20 07:18:39;;;;;;;3.67;2.97;;;;;;;19.20;98.72;95503.50;4351063;32;20283;-60
2022/08/20 07:21:12;;;;;;;8.60;4.00;;;;;;;19.21;98.93;95510.44;4346485;32;20186;-59
2022/08/20 07:23:38;;;;;;;4.53;3.80;;;;;;;19.16;99.53;95504.50;4338611;32;20195;-60
2022/08/20 07:26:12;;;;;;;3.00;2.80;;;;;;;19.20;99.27;95508.88;4343767;32;20186;-59
2022/08/20 07:28:37;;;;;;;3.17;3.07;;;;;;;19.23;98.85;95500.12;4363633;32;20221;-60
2022/08/20 07:34:00;;;;;;;2.63;2.47;;;;;;;19.35;98.64;95509.25;4346631;32;20245;-58
2022/08/20 07:36:27;;;;;;;2.70;2.60;;;;;;;19.33;98.22;95514.22;4340832;32;20172;-59
2022/08/20 07:39:01;;;;;;;2.47;2.37;;;;;;;19.28;98.28;95515.22;4344181;32;20229;-59
2022/08/20 07:41:27;;;;;;;3.07;2.87;;;;;;;19.32;98.32;95518.03;4320457;32;20188;-57
2022/08/20 07:43:57;;;;;;;3.23;3.13;;;;;;;19.39;98.37;95515.50;4342111;32;20243;-56
2022/08/20 07:46:22;;;;;;;3.20;3.00;;;;;;;19.37;97.73;95515.84;4360214;32;20197;-57
2022/08/20 07:48:50;;;;;;;2.20;2.10;;;;;;;19.17;98.40;95523.00;4370827;32;20187;-58
2022/08/20 07:51:18;;;;;;;2.80;2.70;;;;;;;19.31;98.36;95519.16;4359163;32;20214;-59
2022/08/20 07:53:50;;;;;;;3.93;3.57;;;;;;;19.16;98.61;95523.34;4354823;32;20288;-59
2022/08/20 07:56:20;;;;;;;2.47;2.37;;;;;;;19.26;98.81;95522.09;4337806;32;20199;-57
2022/08/20 07:58:50;;;;;;;2.93;2.73;;;;;;;19.32;98.87;95521.50;4343834;32;20199;-57
2022/08/20 08:01:24;;;;;;;3.43;3.17;;;;;;;19.39;98.16;95529.75;4307047;32;20189;-56
2022/08/20 08:03:50;;;;;;;2.93;2.83;;;;;;;19.40;97.49;95528.63;4334826;32;20189;-57
2022/08/20 08:06:19;;;;;;;2.40;2.27;;;;;;;19.39;97.68;95523.56;4340055;32;20207;-57
2022/08/20 08:08:51;;;;;;;2.90;2.77;;;;;;;19.32;98.39;95526.09;4316270;32;20235;-58
2022/08/20 08:11:18;;;;;;;2.03;1.93;;;;;;;19.33;98.37;95522.28;4325570;32;20200;-56
2022/08/20 08:13:47;;;;;;;2.77;2.57;;;;;;;19.23;98.45;95529.72;4305368;32;20196;-58
2022/08/20 08:16:17;;;;;;;3.03;2.93;;;;;;;19.28;97.96;95520.63;4321236;32;20349;-58
2022/08/20 08:18:48;;;;;;;6.27;3.63;;;;;;;19.26;97.93;95525.56;4311878;32;20228;-59
2022/08/20 08:21:16;;;;;;;2.63;2.53;;;;;;;19.39;97.69;95523.56;4280124;32;20208;-58
2022/08/20 08:23:49;;;;;;;2.63;2.53;;;;;;;19.43;97.61;95524.47;4338639;32;20177;-60
2022/08/20 08:26:19;;;;;;;4.00;2.73;;;;;;;19.46;97.28;95529.94;4348485;32;20208;-58
2022/08/20 08:28:47;;;;;;;2.83;2.63;;;;;;;19.52;97.57;95523.22;4318665;32;20204;-58
2022/08/20 08:31:13;;;;;;;2.63;2.53;;;;;;;19.65;97.02;95534.69;4322960;32;20225;-58
2022/08/20 08:33:46;;;;;;;3.30;2.97;;;;;;;19.56;96.26;95537.53;4300381;32;20197;-57
2022/08/20 08:36:19;;;;;;;3.33;3.13;;;;;;;19.51;96.12;95539.72;4264060;32;20185;-58
2022/08/20 08:38:45;;;;;;;3.13;2.10;;;;;;;19.58;96.36;95539.88;4293026;32;20189;-58
2022/08/20 08:41:49;;;;;;;2.50;2.40;;;;;;;19.55;95.60;95541.34;4259091;33;20207;-58
2022/08/20 08:44:25;;;;;;;3.00;2.80;;;;;;;19.41;95.50;95542.84;4260928;32;20240;-58
2022/08/20 08:47:17;;;;;;;5.23;3.17;;;;;;;19.42;95.64;95541.72;4308735;32;20273;-59
2022/08/20 08:49:46;;;;;;;2.53;2.43;;;;;;;19.38;96.00;95549.69;4280926;32;20257;-59
2022/08/20 08:52:33;;;;;;;2.80;2.70;;;;;;;19.47;96.23;95557.63;4299733;32;20243;-57
2022/08/20 08:55:05;;;;;;;2.33;2.23;;;;;;;19.47;96.68;95553.03;4336633;32;20201;-58
2022/08/20 08:57:35;;;;;;;2.63;2.53;;;;;;;19.47;96.42;95552.25;4331374;32;20323;-59
2022/08/20 09:00:18;;;;;;;3.13;2.83;;;;;;;19.43;96.74;95556.75;4321642;32;20283;-58
2022/08/20 09:03:12;;;;;;;2.33;2.13;;;;;;;19.46;97.19;95556.06;4343288;32;20185;-58
2022/08/20 09:05:49;;;;;;;4.63;2.77;;;;;;;19.62;96.71;95556.91;4366851;32;20184;-59
2022/08/20 09:08:28;;;;;;;2.27;2.17;;;;;;;19.65;95.84;95567.00;4326975;32;20247;-56
2022/08/20 09:11:15;;;;;;;2.57;2.40;;;;;;;19.72;95.35;95561.78;4306812;32;20204;-56
2022/08/20 09:13:43;;;;;;;2.57;2.47;;;;;;;19.73;95.53;95562.59;4283027;32;20176;-59
2022/08/20 09:16:17;;;;;;;2.13;2.03;;;;;;;19.75;95.27;95558.37;4329799;32;20190;-57
2022/08/20 09:18:44;;;;;;;3.57;3.37;;;;;;;19.76;94.95;95562.66;4313674;32;20235;-58
2022/08/20 09:21:16;;;;;;;2.27;2.17;;;;;;;19.64;96.16;95554.66;4301509;32;20178;-59
2022/08/20 09:23:42;;;;;;;3.13;2.87;;;;;;;19.74;96.28;95567.63;4326226;32;20176;-58
2022/08/20 09:26:24;;;;;;;2.73;2.53;;;;;;;19.84;95.14;95569.78;4315092;32;20206;-56
2022/08/20 09:28:50;;;;;;;2.67;2.57;;;;;;;19.76;95.48;95562.66;4333587;32;20185;-55
2022/08/20 09:31:22;;;;;;;2.70;2.50;;;;;;;19.79;95.38;95564.66;4311735;32;20260;-57
2022/08/20 09:33:50;;;;;;;3.23;3.03;;;;;;;19.70;96.33;95568.66;4326884;32;20234;-57
2022/08/20 09:36:19;;;;;;;3.03;2.50;;;;;;;19.65;96.65;95564.28;4329324;32;20190;-56
2022/08/20 09:38:49;;;;;;;3.43;3.23;;;;;;;19.45;98.13;95563.34;4342684;32;20204;-58
2022/08/20 09:41:15;;;;;;;2.67;2.57;;;;;;;19.66;96.92;95568.56;4330174;32;20193;-57
2022/08/20 09:43:42;;;;;;;3.70;3.50;;;;;;;19.63;97.07;95565.75;4345480;32;20181;-59
2022/08/20 09:46:19;;;;;;;2.80;2.70;;;;;;;19.64;97.26;95564.63;4360608;32;20196;-56
2022/08/20 09:48:47;;;;;;;9.80;3.60;;;;;;;19.55;97.35;95562.88;4310184;32;20192;-56
2022/08/20 09:51:15;;;;;;;2.60;2.50;;;;;;;19.59;97.90;95562.19;4300901;32;20231;-58
2022/08/20 09:53:41;;;;;;;3.27;2.83;;;;;;;19.67;97.54;95564.75;4313725;32;20181;-58
2022/08/20 09:56:18;;;;;;;2.37;2.27;;;;;;;19.73;96.82;95557.97;4361780;32;20181;-57
2022/08/20 09:58:53;;;;;;;3.60;3.40;;;;;;;19.61;97.84;95558.03;4354452;32;20216;-58
2022/08/20 10:01:21;;;;;;;3.67;3.47;;;;;;;19.31;99.73;95554.12;4326591;32;20247;-58
2022/08/20 10:03:49;;;;;;;3.93;3.63;;;;;;;19.50;99.66;95554.28;4319362;32;20223;-57
2022/08/20 10:06:21;;;;;;;3.10;2.90;;;;;;;19.44;100.00;95555.63;4319898;32;20292;-57
2022/08/20 10:08:48;;;;;;;4.10;3.90;;;;;;;19.39;100.00;95553.19;4341110;32;20181;-56
2022/08/20 10:11:19;;;;;;;3.27;3.13;;;;;;;19.46;99.51;95550.69;4345308;32;20297;-56
2022/08/20 10:13:48;;;;;;;2.23;2.13;;;;;;;19.50;99.95;95546.22;4315061;32;20193;-57
2022/08/20 10:16:17;;;;;;;3.77;3.47;;;;;;;19.60;99.91;95555.69;4357911;32;20251;-58
2022/08/20 10:18:48;;;;;;;2.93;2.73;;;;;;;19.65;99.24;95556.22;4327585;32;20196;-60
2022/08/20 10:21:18;;;;;;;4.20;3.90;;;;;;;19.59;99.78;95557.59;4309118;32;20286;-58
2022/08/20 10:23:45;;;;;;;4.17;3.97;;;;;;;19.27;100.00;95545.94;4319126;32;20220;-59
2022/08/20 10:26:15;;;;;;;4.87;4.57;;;;;;;19.26;100.00;95549.75;4334929;32;20186;-58
2022/08/20 10:28:42;;;;;;;4.10;3.50;;;;;;;19.22;100.00;95552.34;4344697;32;20191;-58
2022/08/20 10:31:19;;;;;;;3.87;3.67;;;;;;;19.28;100.00;95549.44;4355292;32;20279;-57
2022/08/20 10:33:45;;;;;;;4.30;4.00;;;;;;;19.25;100.00;95556.28;4327659;32;20184;-57
2022/08/20 10:36:17;;;;;;;3.43;3.23;;;;;;;19.45;100.00;95552.59;4335283;32;20211;-57
2022/08/20 10:38:47;;;;;;;3.20;3.00;;;;;;;19.27;100.00;95547.84;4354758;32;20200;-58
2022/08/20 10:41:27;;;;;;;2.90;2.80;;;;;;;19.53;100.00;95556.28;4367214;32;20240;-56
2022/08/20 10:43:53;;;;;;;2.70;2.60;;;;;;;19.61;99.36;95551.88;4372544;32;20219;-58
2022/08/20 10:46:18;;;;;;;4.10;3.90;;;;;;;19.79;98.68;95547.72;4332337;32;20280;-58
2022/08/20 10:48:46;;;;;;;4.10;3.90;;;;;;;19.64;100.00;95553.88;4354083;32;20240;-55
2022/08/20 10:51:15;;;;;;;3.07;2.97;;;;;;;19.65;100.00;95561.59;4370930;32;20203;-55
2022/08/20 10:53:40;;;;;;;4.10;3.90;;;;;;;19.70;100.00;95553.28;4353232;32;20184;-58
2022/08/20 10:56:13;;;;;;;4.13;3.93;;;;;;;19.53;99.11;95553.59;4343684;32;20181;-57
2022/08/20 10:58:39;;;;;;;3.40;3.30;;;;;;;19.52;100.00;95552.81;4333931;32;20252;-58
2022/08/20 11:01:09;;;;;;;3.60;3.47;;;;;;;19.54;98.33;95555.13;4343486;32;20185;-59
2022/08/20 11:03:37;;;;;;;5.57;5.17;;;;;;;19.65;98.37;95555.44;4341997;32;20188;-59
2022/08/20 11:06:09;;;;;;;3.50;3.20;;;;;;;19.66;98.54;95546.22;4342326;32;20236;-59
2022/08/20 11:08:36;;;;;;;4.93;4.53;;;;;;;19.70;98.58;95547.91;4345509;32;20296;-59
2022/08/20 11:11:12;;;;;;;10.80;4.27;;;;;;;19.57;98.89;95546.38;4340745;32;20267;-57
2022/08/20 11:13:41;;;;;;;4.57;4.27;;;;;;;19.70;98.76;95553.28;4364939;32;20202;-58
2022/08/20 11:16:08;;;;;;;4.90;4.47;;;;;;;19.72;99.99;95551.03;4313328;32;20264;-57
2022/08/20 11:18:35;;;;;;;6.17;4.27;;;;;;;19.70;99.47;95545.19;4339265;32;20208;-58
2022/08/20 11:21:03;;;;;;;3.70;3.43;;;;;;;19.60;99.40;95542.22;4355985;32;20344;-57
2022/08/20 11:23:29;;;;;;;5.07;4.67;;;;;;;19.54;98.46;95528.22;4338893;32;20181;-57
2022/08/20 11:25:54;;;;;;;2.90;2.80;;;;;;;19.65;97.98;95534.69;4311708;32;20201;-58
2022/08/20 11:28:21;;;;;;;3.73;3.40;;;;;;;19.71;97.69;95537.91;4354243;32;20260;-57
2022/08/20 11:30:49;;;;;;;4.57;4.27;;;;;;;19.90;96.85;95538.78;4336226;32;20185;-58
2022/08/20 11:33:15;;;;;;;4.63;4.23;;;;;;;19.75;98.46;95534.16;4342335;32;20169;-57
2022/08/20 11:35:42;;;;;;;4.23;4.03;;;;;;;19.73;99.58;95531.06;4366158;32;20192;-57
2022/08/20 11:38:08;;;;;;;5.60;5.13;;;;;;;19.72;99.67;95526.81;4352090;32;20185;-57
2022/08/20 11:40:35;;;;;;;4.03;3.73;;;;;;;19.74;100.00;95531.84;4340121;32;20203;-57
2022/08/20 11:43:00;;;;;;;5.67;5.20;;;;;;;19.72;100.00;95528.72;4334480;32;20269;-57
2022/08/20 11:45:26;;;;;;;5.10;4.80;;;;;;;19.77;100.00;95523.03;4357007;32;20208;-55
2022/08/20 11:47:51;;;;;;;5.23;4.93;;;;;;;19.98;100.00;95522.78;4367150;32;20244;-57
2022/08/20 11:50:19;;;;;;;4.57;4.30;;;;;;;20.04;100.00;95524.88;4371408;32;20248;-59
2022/08/20 11:52:44;;;;;;;8.13;7.63;;;;;;;20.16;99.10;95524.78;4356071;32;20249;-59